Topsham, United Kingdom
Current Conditions -  °F | °C
As of 1:50 AM on Friday 21 Nov 2014 (Local Time) from EGTE Reporting Station
Broken Clouds Broken Clouds  
Wind Chill: 43°   Ceiling: 2300
Heat Index: 46°   Visibility: 6mi
Dew Point: 43°   Wind: 7mph
Humidity: 87%   Direction: 50°NE
Pressure: 30.09"   Gusts: NA
Location:  50.69°N, 3.47°W
Report Text: EGTE 210150Z 05006KT 9999 BKN023 08/06 Q1019
Loading
Personal Weather Stations






























Interactive Weather Map New forecast layout! Learn more

10-Day Weather Forecast

Advertisements
Track Severe Weather on mobile